Time;durP1;ratioP1;P1;durP2;ratioP2;P2;SDS_P1;SDS_P2;PMS_P1;PMS_P2;Temp;Humidity;BMP_temperature;BMP_pressure;BME280_temperature;BME280_humidity;BME280_pressure;Samples;Min_cycle;Max_cycle;Signal;HPM_P1;HPM_P2
2022/10/19 00:00:38;;;;;;;36.15;11.85;;;;;;;14.31;100.00;99327.00;2623604;28;20495;-82
2022/10/19 00:02:16;;;;;;;52.17;13.75;;;;;;;14.47;100.00;99330.06;2625232;28;20044;-82
2022/10/19 00:03:33;;;;;;;34.08;13.27;;;;;;;14.53;100.00;99325.47;2621715;28;20052;-82
2022/10/19 00:04:49;;;;;;;108.60;15.82;;;;;;;14.63;100.00;99323.41;2623257;28;20048;-84
2022/10/19 00:06:12;;;;;;;109.07;14.77;;;;;;;14.38;100.00;99331.16;2622242;28;20044;-86
2022/10/19 00:07:27;;;;;;;48.70;13.77;;;;;;;14.36;100.00;99328.59;2622137;28;20415;-82
2022/10/19 00:08:43;;;;;;;32.30;12.80;;;;;;;14.48;100.00;99329.16;2620861;28;20100;-82
2022/10/19 00:09:59;;;;;;;87.78;13.90;;;;;;;14.36;100.00;99322.44;2622867;28;20048;-83
2022/10/19 00:11:14;;;;;;;66.93;13.50;;;;;;;14.30;100.00;99323.50;2621070;28;20552;-82
2022/10/19 00:12:30;;;;;;;52.63;13.48;;;;;;;14.25;100.00;99322.78;2621435;28;20048;-82
2022/10/19 00:13:46;;;;;;;43.75;13.82;;;;;;;14.27;100.00;99324.47;2624100;28;20048;-82
2022/10/19 00:15:03;;;;;;;35.22;13.48;;;;;;;14.36;100.00;99322.44;2623789;28;20052;-84
2022/10/19 00:16:19;;;;;;;30.65;12.40;;;;;;;14.32;100.00;99323.47;2625173;28;20074;-82
2022/10/19 00:17:34;;;;;;;31.38;11.60;;;;;;;14.29;100.00;99319.13;2623186;28;20487;-83
2022/10/19 00:18:50;;;;;;;33.22;13.25;;;;;;;14.24;100.00;99326.31;2626663;28;20048;-82
2022/10/19 00:20:06;;;;;;;30.75;12.52;;;;;;;14.22;100.00;99321.09;2621710;28;20063;-82
2022/10/19 00:21:21;;;;;;;27.73;11.77;;;;;;;14.23;100.00;99320.16;2621789;28;20055;-82
2022/10/19 00:22:37;;;;;;;25.20;11.68;;;;;;;14.07;100.00;99321.53;2620222;28;20102;-83
2022/10/19 00:23:53;;;;;;;27.88;11.55;;;;;;;14.09;100.00;99324.97;2609836;28;20113;-82
2022/10/19 00:25:08;;;;;;;31.70;12.38;;;;;;;13.79;100.00;99328.44;2614375;28;20495;-82
2022/10/19 00:26:24;;;;;;;32.63;11.65;;;;;;;13.78;100.00;99331.09;2623473;28;20380;-82
2022/10/19 00:27:40;;;;;;;27.02;11.65;;;;;;;14.00;100.00;99328.72;2620996;28;20048;-84
2022/10/19 00:28:56;;;;;;;34.00;13.52;;;;;;;14.23;100.00;99332.50;2626521;28;20860;-84
2022/10/19 00:30:11;;;;;;;38.88;13.25;;;;;;;14.18;100.00;99332.63;2622484;28;20055;-82
2022/10/19 00:31:27;;;;;;;35.78;12.55;;;;;;;14.34;100.00;99332.19;2621358;28;20451;-83
2022/10/19 00:32:42;;;;;;;28.50;12.43;;;;;;;14.48;100.00;99337.06;2621646;28;20842;-83
2022/10/19 00:33:58;;;;;;;30.55;11.70;;;;;;;14.33;100.00;99327.81;2621723;28;20048;-82
2022/10/19 00:35:14;;;;;;;42.85;13.38;;;;;;;14.32;100.00;99332.25;2621025;28;20455;-82
2022/10/19 00:36:32;;;;;;;35.30;12.25;;;;;;;14.24;100.00;99328.94;2623616;28;20048;-83
2022/10/19 00:37:48;;;;;;;37.75;12.75;;;;;;;14.30;100.00;99327.91;2620250;28;20049;-85
2022/10/19 00:39:07;;;;;;;30.88;12.77;;;;;;;14.18;100.00;99330.00;2622061;28;20044;-84
2022/10/19 00:40:23;;;;;;;32.65;12.63;;;;;;;14.08;100.00;99326.75;2623761;28;20076;-82
2022/10/19 00:41:39;;;;;;;48.40;13.77;;;;;;;14.06;100.00;99330.34;2623472;28;20048;-85
2022/10/19 00:42:55;;;;;;;42.95;13.30;;;;;;;14.15;100.00;99327.44;2621232;28;20693;-82
2022/10/19 00:44:11;;;;;;;35.60;13.38;;;;;;;14.00;100.00;99327.88;2621221;28;20063;-86
2022/10/19 00:45:26;;;;;;;43.70;13.73;;;;;;;13.99;100.00;99324.38;2620986;28;20056;-82
2022/10/19 00:46:44;;;;;;;42.80;13.32;;;;;;;14.06;100.00;99322.44;2624729;28;20059;-82
2022/10/19 00:48:00;;;;;;;41.33;13.35;;;;;;;14.06;100.00;99317.16;2626448;28;20231;-86
2022/10/19 00:49:20;;;;;;;45.75;13.00;;;;;;;14.06;100.00;99327.69;2623867;28;20060;-84
2022/10/19 00:50:36;;;;;;;50.95;13.05;;;;;;;14.12;100.00;99314.38;2624603;28;20098;-83
2022/10/19 00:52:00;;;;;;;27.58;13.05;;;;;;;14.30;100.00;99318.22;2624169;28;20099;-82
2022/10/19 00:53:16;;;;;;;35.60;13.60;;;;;;;14.27;100.00;99313.94;2624978;28;20646;-84
2022/10/19 00:54:32;;;;;;;61.67;12.93;;;;;;;14.21;100.00;99314.09;2621971;28;20052;-83
2022/10/19 00:55:48;;;;;;;31.05;12.20;;;;;;;14.31;100.00;99311.19;2623630;28;20051;-82
2022/10/19 00:57:05;;;;;;;27.63;12.25;;;;;;;14.33;100.00;99310.25;2626746;28;20106;-84
2022/10/19 00:58:21;;;;;;;38.60;12.88;;;;;;;14.24;100.00;99300.81;2624763;28;20051;-82
2022/10/19 00:59:38;;;;;;;47.35;13.80;;;;;;;14.22;100.00;99299.16;2625338;28;20090;-82
2022/10/19 01:00:54;;;;;;;51.70;14.45;;;;;;;14.08;100.00;99297.78;2624440;28;20055;-82
2022/10/19 01:02:09;;;;;;;55.97;12.30;;;;;;;14.07;100.00;99300.47;2625316;28;20071;-84
2022/10/19 01:03:25;;;;;;;43.70;13.65;;;;;;;13.99;100.00;99298.03;2624419;28;20646;-83
2022/10/19 01:04:46;;;;;;;30.55;12.23;;;;;;;14.24;100.00;99299.97;2621616;28;20071;-82
2022/10/19 01:06:02;;;;;;;37.45;12.75;;;;;;;14.39;100.00;99301.31;2621519;28;20052;-85
2022/10/19 01:07:19;;;;;;;55.08;12.60;;;;;;;14.14;100.00;99307.28;2625242;28;20455;-83
2022/10/19 01:08:34;;;;;;;42.50;12.15;;;;;;;14.03;100.00;99304.09;2622798;28;20465;-83
2022/10/19 01:09:51;;;;;;;52.90;11.68;;;;;;;13.78;100.00;99302.13;2624780;28;20048;-82
2022/10/19 01:11:25;;;;;;;43.63;11.85;;;;;;;13.83;100.00;99302.91;2626424;28;20644;-82
2022/10/19 01:13:10;;;;;;;53.28;11.23;;;;;;;13.93;100.00;99301.72;2623776;28;20048;-83
2022/10/19 01:14:54;;;;;;;50.92;10.82;;;;;;;14.07;100.00;99303.09;2626845;28;20478;-82
2022/10/19 01:16:16;;;;;;;47.70;11.43;;;;;;;13.93;100.00;99314.88;2625764;28;20087;-84
2022/10/19 01:17:38;;;;;;;;;;;;;;;13.85;100.00;99306.34;2625027;28;20051;-82
2022/10/19 01:19:13;;;;;;;29.92;10.52;;;;;;;13.91;100.00;99300.06;2625026;28;19924;-81
2022/10/19 01:21:19;;;;;;;30.98;10.60;;;;;;;14.06;100.00;99296.09;2625933;28;20084;-82
2022/10/19 01:22:54;;;;;;;32.35;10.05;;;;;;;14.14;100.00;99299.41;2593599;28;20093;-85
2022/10/19 01:24:40;;;;;;;29.88;10.10;;;;;;;14.14;100.00;99288.84;2623192;28;20060;-82
2022/10/19 01:26:07;;;;;;;86.30;12.73;;;;;;;14.07;100.00;99295.19;2624737;28;20063;-82
2022/10/19 01:27:29;;;;;;;112.43;13.07;;;;;;;13.98;100.00;99291.06;2622825;28;20063;-83
2022/10/19 01:29:02;;;;;;;54.42;12.07;;;;;;;14.03;100.00;99294.41;2624370;28;20052;-82
2022/10/19 01:30:37;;;;;;;;;;;;;;;14.02;100.00;99292.69;2625779;28;20059;-83
2022/10/19 01:31:57;;;;;;;127.85;12.55;;;;;;;14.02;100.00;99291.84;2626452;28;19950;-82
2022/10/19 01:33:39;;;;;;;120.32;12.18;;;;;;;14.20;100.00;99288.66;2625702;28;20052;-82
2022/10/19 01:35:21;;;;;;;188.75;14.57;;;;;;;14.02;100.00;99286.56;2627598;28;20158;-85
2022/10/19 01:36:57;;;;;;;117.15;14.32;;;;;;;14.08;100.00;99289.00;2623268;28;20643;-84
2022/10/19 01:38:22;;;;;;;140.95;13.32;;;;;;;13.79;100.00;99283.69;2622163;28;20491;-81
2022/10/19 01:39:53;;;;;;;24.20;9.63;;;;;;;13.79;100.00;99285.44;2623663;28;20051;-85
2022/10/19 01:41:24;;;;;;;164.43;14.15;;;;;;;13.70;100.00;99282.19;2623992;28;20047;-82
2022/10/19 01:43:02;;;;;;;84.13;10.88;;;;;;;13.80;100.00;99289.78;2625456;28;20075;-85
2022/10/19 01:44:36;;;;;;;133.90;14.07;;;;;;;13.58;100.00;99284.25;2627211;28;20044;-83
2022/10/19 01:45:56;;;;;;;128.52;12.68;;;;;;;13.61;100.00;99287.69;2624359;28;20040;-83
2022/10/19 01:47:24;;;;;;;67.95;12.23;;;;;;;13.60;100.00;99287.69;2626773;28;20052;-82
2022/10/19 01:48:46;;;;;;;184.32;14.63;;;;;;;13.51;100.00;99286.19;2620632;28;20043;-82
2022/10/19 01:50:10;;;;;;;198.10;15.50;;;;;;;13.73;100.00;99285.63;2625868;28;20048;-82
2022/10/19 01:51:30;;;;;;;158.55;15.05;;;;;;;13.59;100.00;99284.22;2622885;28;20048;-82
2022/10/19 01:52:49;;;;;;;130.10;13.38;;;;;;;13.70;100.00;99292.69;2624061;28;20495;-82
2022/10/19 01:54:10;;;;;;;216.60;16.55;;;;;;;13.44;100.00;99285.47;2623629;28;20056;-82
2022/10/19 01:55:27;;;;;;;151.32;14.73;;;;;;;13.60;100.00;99287.69;2622265;28;20548;-82
2022/10/19 01:56:45;;;;;;;166.32;13.60;;;;;;;13.54;100.00;99294.00;2623966;28;20087;-82
2022/10/19 01:58:06;;;;;;;195.98;14.90;;;;;;;13.33;100.00;99291.00;2621907;28;20159;-89
2022/10/19 01:59:22;;;;;;;155.20;12.48;;;;;;;13.46;100.00;99290.72;2625656;28;20133;-81
2022/10/19 02:00:42;;;;;;;179.13;12.05;;;;;;;13.46;100.00;99290.72;2626003;28;20392;-85
2022/10/19 02:01:57;;;;;;;250.95;17.10;;;;;;;13.49;100.00;99291.50;2625807;28;20048;-83
2022/10/19 02:03:14;;;;;;;137.35;11.90;;;;;;;13.76;100.00;99290.78;2621633;28;20052;-82
2022/10/19 02:04:32;;;;;;;191.65;14.95;;;;;;;13.63;100.00;99293.75;2623266;28;20407;-81
2022/10/19 02:05:50;;;;;;;64.07;10.68;;;;;;;13.60;100.00;99285.06;2621782;28;20075;-86
2022/10/19 02:07:08;;;;;;;51.95;10.07;;;;;;;13.64;100.00;99282.31;2623154;28;20539;-85
2022/10/19 02:08:29;;;;;;;74.18;11.25;;;;;;;13.68;100.00;99283.97;2625103;28;20055;-82
2022/10/19 02:09:44;;;;;;;139.60;12.35;;;;;;;13.74;100.00;99279.44;2624890;28;20048;-86
2022/10/19 02:11:01;;;;;;;115.47;11.68;;;;;;;13.70;100.00;99284.81;2622780;28;20056;-82
2022/10/19 02:12:19;;;;;;;95.95;11.40;;;;;;;13.60;100.00;99275.44;2624508;28;20060;-82
2022/10/19 02:13:36;;;;;;;89.05;11.30;;;;;;;13.72;100.00;99278.63;2624281;28;20538;-82
2022/10/19 02:14:56;;;;;;;80.25;10.43;;;;;;;13.75;100.00;99266.22;2624787;28;20044;-83
2022/10/19 02:16:19;;;;;;;238.30;15.10;;;;;;;13.72;100.00;99273.38;2623099;28;20068;-82
2022/10/19 02:17:40;;;;;;;252.35;14.23;;;;;;;13.63;100.00;99270.06;2627270;28;20051;-82
2022/10/19 02:18:58;;;;;;;111.25;10.18;;;;;;;13.64;100.00;99269.16;2622131;28;20070;-81
2022/10/19 02:20:15;;;;;;;62.70;8.68;;;;;;;13.73;100.00;99275.09;2623088;28;20540;-82
2022/10/19 02:21:30;;;;;;;128.52;12.07;;;;;;;13.72;100.00;99266.31;2623951;28;20597;-86
2022/10/19 02:22:46;;;;;;;131.02;11.93;;;;;;;13.72;100.00;99268.09;2611819;28;20052;-84
2022/10/19 02:24:02;;;;;;;150.98;11.63;;;;;;;13.74;100.00;99261.03;2614846;28;20128;-82
2022/10/19 02:25:18;;;;;;;233.60;13.45;;;;;;;13.65;100.00;99265.63;2627586;28;20055;-83
2022/10/19 02:26:33;;;;;;;236.55;14.55;;;;;;;13.64;100.00;99265.69;2625816;28;20052;-82
2022/10/19 02:27:49;;;;;;;132.95;11.35;;;;;;;13.62;100.00;99256.94;2621341;28;20451;-82
2022/10/19 02:29:05;;;;;;;64.05;8.23;;;;;;;13.75;100.00;99257.50;2621869;28;20132;-82
2022/10/19 02:30:21;;;;;;;48.97;8.55;;;;;;;13.83;100.00;99256.38;2623874;28;20056;-82
2022/10/19 02:31:37;;;;;;;273.15;15.07;;;;;;;13.38;100.00;99264.59;2624473;28;20048;-82
2022/10/19 02:32:52;;;;;;;37.50;8.15;;;;;;;13.57;100.00;99259.72;2624601;28;20807;-86
2022/10/19 02:34:09;;;;;;;175.35;15.13;;;;;;;13.65;100.00;99257.72;2621555;28;20053;-82
2022/10/19 02:35:24;;;;;;;138.38;11.55;;;;;;;13.59;100.00;99257.91;2621626;28;20086;-82
2022/10/19 02:36:40;;;;;;;191.80;14.30;;;;;;;13.49;100.00;99257.31;2624290;28;20102;-87
2022/10/19 02:38:01;;;;;;;66.15;9.35;;;;;;;13.53;100.00;99256.31;2621468;28;20402;-82
2022/10/19 02:39:16;;;;;;;130.60;11.13;;;;;;;13.48;100.00;99262.59;2625703;28;20056;-82
2022/10/19 02:40:38;;;;;;;81.03;9.60;;;;;;;13.37;100.00;99263.69;2622645;28;20135;-82
2022/10/19 02:42:05;;;;;;;73.88;10.43;;;;;;;13.25;100.00;99270.16;2622135;28;20048;-83
2022/10/19 02:43:25;;;;;;;92.55;12.52;;;;;;;13.24;100.00;99270.19;2624330;28;20576;-83
2022/10/19 02:45:01;;;;;;;48.45;10.18;;;;;;;12.94;100.00;99267.44;2622724;28;20048;-82
2022/10/19 02:46:26;;;;;;;46.55;9.05;;;;;;;13.03;100.00;99269.84;2622158;28;20595;-83
2022/10/19 02:47:58;;;;;;;58.38;10.63;;;;;;;13.03;100.00;99272.47;2622500;28;20556;-82
2022/10/19 02:49:14;;;;;;;56.13;9.90;;;;;;;12.83;100.00;99265.91;2625419;28;20052;-82
2022/10/19 02:50:30;;;;;;;88.50;10.20;;;;;;;12.97;100.00;99269.97;2623345;28;20478;-82
2022/10/19 02:52:03;;;;;;;132.63;13.65;;;;;;;13.12;100.00;99274.00;2626306;28;20044;-83
2022/10/19 02:53:18;;;;;;;;;;;;;;;13.27;100.00;99264.88;2625877;28;20060;-87
2022/10/19 02:54:34;;;;;;;97.80;10.90;;;;;;;13.07;100.00;99262.75;2621404;28;20291;-86
2022/10/19 02:55:51;;;;;;;109.38;11.85;;;;;;;13.14;100.00;99256.41;2625059;28;20526;-82
2022/10/19 02:57:21;;;;;;;76.28;11.43;;;;;;;12.87;100.00;99260.59;2622584;28;20563;-82
2022/10/19 02:58:37;;;;;;;53.45;10.45;;;;;;;12.96;100.00;99263.88;2623768;28;20052;-81
2022/10/19 02:59:52;;;;;;;53.70;10.52;;;;;;;12.78;100.00;99259.91;2622840;28;20045;-83
2022/10/19 03:01:08;;;;;;;28.05;10.18;;;;;;;12.90;100.00;99264.00;2622915;28;20093;-82
2022/10/19 03:02:24;;;;;;;22.90;10.10;;;;;;;13.14;100.00;99269.56;2622038;28;20052;-82
2022/10/19 03:03:40;;;;;;;23.90;9.57;;;;;;;13.20;100.00;99261.53;2623957;28;20055;-83
2022/10/19 03:04:55;;;;;;;20.67;8.80;;;;;;;13.13;100.00;99259.94;2622064;28;20059;-82
2022/10/19 03:06:11;;;;;;;19.10;8.93;;;;;;;13.34;100.00;99252.41;2621650;28;20052;-88
2022/10/19 03:07:27;;;;;;;23.67;8.70;;;;;;;13.06;100.00;99259.25;2622184;28;20514;-84
2022/10/19 03:08:43;;;;;;;27.75;9.18;;;;;;;13.22;100.00;99262.34;2621016;28;20846;-83
2022/10/19 03:09:59;;;;;;;24.45;9.27;;;;;;;13.02;100.00;99257.59;2622120;28;20056;-83
2022/10/19 03:11:14;;;;;;;22.60;8.55;;;;;;;12.95;100.00;99262.13;2622587;28;20059;-82
2022/10/19 03:12:30;;;;;;;39.55;9.60;;;;;;;13.11;100.00;99257.34;2621506;28;20045;-83
2022/10/19 03:13:46;;;;;;;23.48;9.85;;;;;;;13.04;100.00;99261.03;2621598;28;20114;-83
2022/10/19 03:15:01;;;;;;;24.48;10.38;;;;;;;13.12;100.00;99264.31;2622082;28;20060;-87
2022/10/19 03:16:17;;;;;;;20.05;9.35;;;;;;;12.74;100.00;99263.53;2621326;28;20490;-82
2022/10/19 03:17:33;;;;;;;24.70;11.25;;;;;;;12.82;100.00;99268.59;2621160;28;20064;-83
2022/10/19 03:18:48;;;;;;;21.02;9.73;;;;;;;12.81;100.00;99266.88;2623515;28;20059;-88
2022/10/19 03:20:04;;;;;;;21.77;10.48;;;;;;;12.84;100.00;99277.31;2623447;28;20055;-83
2022/10/19 03:21:20;;;;;;;22.58;9.85;;;;;;;12.90;100.00;99276.28;2624512;28;20048;-82
2022/10/19 03:22:36;;;;;;;25.08;9.73;;;;;;;12.84;100.00;99265.00;2610051;28;20136;-82
2022/10/19 03:23:51;;;;;;;21.95;10.02;;;;;;;13.11;100.00;99267.88;2619040;28;20336;-82
2022/10/19 03:25:07;;;;;;;20.60;9.88;;;;;;;12.88;100.00;99270.22;2623416;28;20064;-84
2022/10/19 03:26:23;;;;;;;18.92;9.70;;;;;;;12.96;100.00;99271.75;2623143;28;20127;-83
2022/10/19 03:27:38;;;;;;;21.92;10.25;;;;;;;13.18;100.00;99273.81;2621802;28;20462;-82
2022/10/19 03:28:54;;;;;;;20.73;9.35;;;;;;;13.04;100.00;99271.56;2622339;28;20101;-86
2022/10/19 03:30:10;;;;;;;19.77;9.68;;;;;;;12.77;100.00;99273.06;2621383;28;20400;-82
2022/10/19 03:31:26;;;;;;;20.80;9.05;;;;;;;12.84;100.00;99269.41;2620969;28;20561;-82
2022/10/19 03:32:41;;;;;;;21.67;10.20;;;;;;;12.99;100.00;99265.53;2621180;28;20509;-83
2022/10/19 03:33:57;;;;;;;20.00;10.02;;;;;;;13.04;100.00;99265.44;2621914;28;20101;-82
2022/10/19 03:35:12;;;;;;;20.65;9.90;;;;;;;13.03;100.00;99269.84;2621898;28;20055;-83
2022/10/19 03:36:31;;;;;;;23.52;9.77;;;;;;;12.93;100.00;99274.47;2620800;28;20498;-86
2022/10/19 03:37:46;;;;;;;33.58;10.43;;;;;;;12.58;100.00;99278.78;2625483;28;20048;-86
2022/10/19 03:39:05;;;;;;;38.53;10.80;;;;;;;12.77;100.00;99273.06;2620436;28;20048;-83
2022/10/19 03:40:21;;;;;;;22.33;9.90;;;;;;;12.67;100.00;99281.19;2619766;28;20048;-82
2022/10/19 03:41:37;;;;;;;25.75;11.05;;;;;;;12.80;100.00;99291.44;2624361;28;20056;-88
2022/10/19 03:42:53;;;;;;;22.73;11.00;;;;;;;12.77;100.00;99289.72;2623413;28;20052;-84
2022/10/19 03:44:09;;;;;;;22.45;11.30;;;;;;;12.56;100.00;99284.03;2622982;28;20139;-84
2022/10/19 03:45:25;;;;;;;20.67;9.50;;;;;;;12.35;100.00;99289.78;2624287;28;20113;-83
2022/10/19 03:46:40;;;;;;;20.08;9.30;;;;;;;12.46;100.00;99289.53;2623516;28;20653;-83
2022/10/19 03:47:56;;;;;;;20.20;9.57;;;;;;;12.50;100.00;99292.06;2626581;28;20859;-88
2022/10/19 03:49:13;;;;;;;23.50;11.00;;;;;;;12.50;100.00;99291.19;2621734;28;20064;-83
2022/10/19 03:50:29;;;;;;;21.73;11.15;;;;;;;12.61;100.00;99290.97;2624794;28;20054;-85
2022/10/19 03:51:45;;;;;;;18.77;9.45;;;;;;;12.44;100.00;99297.47;2623094;28;20630;-84
2022/10/19 03:53:00;;;;;;;23.10;10.07;;;;;;;12.56;100.00;99291.06;2623635;28;20150;-83
2022/10/19 03:54:16;;;;;;;30.38;10.75;;;;;;;12.62;100.00;99293.56;2623606;28;20056;-83
2022/10/19 03:55:32;;;;;;;25.65;10.55;;;;;;;12.48;100.00;99283.38;2621783;28;20052;-84
2022/10/19 03:56:47;;;;;;;22.65;10.05;;;;;;;12.60;100.00;99289.25;2621385;28;20059;-82
2022/10/19 03:58:03;;;;;;;23.15;10.07;;;;;;;12.67;100.00;99286.44;2623457;28;20062;-82
2022/10/19 03:59:18;;;;;;;25.58;9.70;;;;;;;12.71;100.00;99279.34;2621916;28;20080;-81
2022/10/19 04:00:34;;;;;;;16.90;9.43;;;;;;;12.61;100.00;99276.06;2623409;28;20666;-82
2022/10/19 04:01:49;;;;;;;23.55;9.57;;;;;;;12.73;100.00;99284.56;2621653;28;20359;-86
2022/10/19 04:03:05;;;;;;;22.77;9.93;;;;;;;12.73;100.00;99280.19;2623225;28;20453;-84
2022/10/19 04:04:21;;;;;;;25.45;9.20;;;;;;;12.67;100.00;99280.31;2622791;28;20059;-84
2022/10/19 04:05:36;;;;;;;25.42;10.43;;;;;;;12.77;100.00;99273.94;2626432;28;20051;-82
2022/10/19 04:06:52;;;;;;;19.08;9.50;;;;;;;12.76;100.00;99279.22;2621809;28;20225;-82
2022/10/19 04:08:08;;;;;;;22.27;8.88;;;;;;;12.55;100.00;99284.09;2622458;28;20550;-83
2022/10/19 04:09:23;;;;;;;16.73;8.93;;;;;;;12.27;100.00;99287.31;2621212;28;20113;-82
2022/10/19 04:10:39;;;;;;;33.22;10.63;;;;;;;12.61;100.00;99283.09;2624041;28;20040;-82
2022/10/19 04:11:54;;;;;;;23.30;9.27;;;;;;;12.48;100.00;99288.63;2622550;28;20047;-81
2022/10/19 04:13:10;;;;;;;19.98;8.93;;;;;;;12.56;100.00;99281.41;2623789;28;20501;-81
2022/10/19 04:14:26;;;;;;;21.73;8.90;;;;;;;12.45;100.00;99278.19;2624482;28;20109;-87
2022/10/19 04:15:41;;;;;;;23.80;9.50;;;;;;;12.54;100.00;99285.00;2620000;28;20051;-84
2022/10/19 04:16:57;;;;;;;35.28;9.43;;;;;;;12.39;100.00;99284.44;2622082;28;20051;-82
2022/10/19 04:18:12;;;;;;;24.42;8.93;;;;;;;12.20;100.00;99281.34;2625460;28;20450;-81
2022/10/19 04:19:28;;;;;;;19.40;8.98;;;;;;;12.18;100.00;99287.50;2625112;28;20528;-89
2022/10/19 04:20:43;;;;;;;18.58;8.95;;;;;;;12.25;100.00;99284.72;2624188;28;20055;-85
2022/10/19 04:21:59;;;;;;;20.23;9.70;;;;;;;12.35;100.00;99281.91;2627091;28;20406;-83
2022/10/19 04:23:15;;;;;;;17.15;9.07;;;;;;;12.44;100.00;99276.47;2628084;28;20610;-83
2022/10/19 04:24:30;;;;;;;23.02;10.13;;;;;;;12.42;100.00;99281.75;2624095;28;20477;-81
2022/10/19 04:25:46;;;;;;;25.42;9.55;;;;;;;12.42;100.00;99276.50;2623019;28;20048;-82
2022/10/19 04:27:02;;;;;;;43.45;9.50;;;;;;;12.50;100.00;99273.69;2623760;28;20044;-89
2022/10/19 04:28:17;;;;;;;26.05;9.43;;;;;;;12.32;100.00;99274.09;2623777;28;20413;-82
2022/10/19 04:29:33;;;;;;;25.60;9.77;;;;;;;12.37;100.00;99282.72;2624469;28;20059;-83
2022/10/19 04:30:48;;;;;;;28.70;9.25;;;;;;;12.14;100.00;99279.72;2624221;28;20044;-84
2022/10/19 04:32:04;;;;;;;18.90;8.20;;;;;;;12.22;100.00;99282.16;2622501;28;20079;-82
2022/10/19 04:33:20;;;;;;;26.52;8.50;;;;;;;12.35;100.00;99281.91;2623716;28;20052;-83
2022/10/19 04:34:35;;;;;;;24.20;9.15;;;;;;;12.36;100.00;99281.00;2622060;28;20057;-83
2022/10/19 04:35:57;;;;;;;16.38;8.13;;;;;;;12.19;100.00;99281.38;2623894;28;20524;-82
2022/10/19 04:37:13;;;;;;;17.40;8.50;;;;;;;12.23;100.00;99283.06;2624856;28;20067;-81
2022/10/19 04:38:29;;;;;;;24.10;8.70;;;;;;;12.01;100.00;99280.81;2622807;28;20059;-81
2022/10/19 04:39:44;;;;;;;16.83;8.18;;;;;;;12.17;100.00;99277.91;2625599;28;20052;-82
2022/10/19 04:41:05;;;;;;;19.35;8.60;;;;;;;12.14;100.00;99281.44;2623136;28;20052;-82
2022/10/19 04:42:20;;;;;;;16.23;7.78;;;;;;;12.17;100.00;99278.78;2625981;28;20058;-83
2022/10/19 04:43:37;;;;;;;16.42;8.38;;;;;;;11.95;100.00;99279.19;2623377;28;20538;-82
2022/10/19 04:44:52;;;;;;;16.10;8.95;;;;;;;12.28;100.00;99275.94;2624337;28;20060;-82
2022/10/19 04:46:13;;;;;;;18.33;8.73;;;;;;;12.08;100.00;99276.34;2624958;28;20055;-82
2022/10/19 04:47:29;;;;;;;14.68;8.50;;;;;;;12.19;100.00;99277.00;2624216;28;20415;-82
2022/10/19 04:48:46;;;;;;;16.17;9.00;;;;;;;12.38;100.00;99277.47;2628570;28;20502;-84
2022/10/19 04:50:02;;;;;;;14.95;7.13;;;;;;;12.28;100.00;99289.06;2624285;28;20056;-81
2022/10/19 04:51:21;;;;;;;17.05;8.38;;;;;;;12.12;100.00;99278.00;2625030;28;20047;-82
2022/10/19 04:52:36;;;;;;;15.40;7.88;;;;;;;12.06;100.00;99280.78;2627657;28;20052;-81
2022/10/19 04:53:52;;;;;;;16.50;8.23;;;;;;;12.46;100.00;99271.16;2626431;28;20071;-82
2022/10/19 04:55:08;;;;;;;18.02;8.45;;;;;;;12.61;100.00;99277.84;2627334;28;20113;-82
2022/10/19 04:56:28;;;;;;;13.95;7.93;;;;;;;12.54;100.00;99279.75;2627673;28;20040;-82
2022/10/19 04:57:43;;;;;;;16.38;7.78;;;;;;;12.39;100.00;99278.31;2626906;28;20078;-82
2022/10/19 04:58:59;;;;;;;15.13;7.60;;;;;;;12.27;100.00;99275.03;2627080;28;20054;-82
2022/10/19 05:00:15;;;;;;;14.98;7.72;;;;;;;12.33;100.00;99275.84;2624235;28;20063;-86
2022/10/19 05:01:31;;;;;;;14.88;8.13;;;;;;;12.09;100.00;99270.19;2626593;28;20138;-82
2022/10/19 05:02:47;;;;;;;16.63;8.85;;;;;;;12.04;100.00;99270.28;2625430;28;20049;-87
2022/10/19 05:04:02;;;;;;;14.82;7.82;;;;;;;11.89;100.00;99263.56;2626660;28;20135;-84
2022/10/19 05:05:18;;;;;;;14.65;7.78;;;;;;;12.13;100.00;99269.22;2622859;28;20056;-81
2022/10/19 05:06:34;;;;;;;19.48;8.75;;;;;;;12.00;100.00;99268.59;2625761;28;20044;-81
2022/10/19 05:07:49;;;;;;;14.00;8.02;;;;;;;12.00;100.00;99271.22;2624813;28;20356;-82
2022/10/19 05:09:05;;;;;;;13.88;8.25;;;;;;;12.05;100.00;99271.16;2622811;28;20052;-81
2022/10/19 05:10:21;;;;;;;16.65;9.07;;;;;;;11.94;100.00;99272.22;2612417;28;20091;-86
2022/10/19 05:11:36;;;;;;;18.25;8.50;;;;;;;12.19;100.00;99270.88;2614591;28;20109;-85
2022/10/19 05:12:52;;;;;;;15.75;9.20;;;;;;;12.29;100.00;99275.03;2622378;28;20059;-83
2022/10/19 05:14:08;;;;;;;12.93;7.22;;;;;;;12.33;100.00;99274.06;2624790;28;20063;-82
2022/10/19 05:15:23;;;;;;;14.57;8.05;;;;;;;12.44;100.00;99276.47;2622306;28;20052;-82
2022/10/19 05:16:39;;;;;;;15.48;8.10;;;;;;;12.29;100.00;99278.53;2623336;28;20048;-82
2022/10/19 05:17:55;;;;;;;14.45;7.88;;;;;;;12.36;100.00;99281.88;2621485;28;20044;-81
2022/10/19 05:19:13;;;;;;;16.08;8.13;;;;;;;12.21;100.00;99284.81;2625616;28;20047;-86
2022/10/19 05:20:28;;;;;;;12.05;7.43;;;;;;;12.43;100.00;99283.47;2625721;28;20052;-82
2022/10/19 05:21:44;;;;;;;13.50;7.72;;;;;;;12.54;100.00;99277.97;2623994;28;20051;-82
2022/10/19 05:22:59;;;;;;;16.85;7.60;;;;;;;12.60;100.00;99284.00;2625529;28;20051;-81
2022/10/19 05:24:18;;;;;;;15.50;8.48;;;;;;;12.64;100.00;99283.91;2626693;28;20346;-82
2022/10/19 05:25:33;;;;;;;14.48;7.40;;;;;;;12.65;100.00;99287.38;2623338;28;20471;-81
2022/10/19 05:26:49;;;;;;;14.70;7.78;;;;;;;12.64;100.00;99285.66;2623994;28;20059;-81
2022/10/19 05:28:05;;;;;;;14.82;7.18;;;;;;;12.55;100.00;99284.94;2624495;28;20049;-82
2022/10/19 05:29:20;;;;;;;19.73;7.75;;;;;;;12.62;100.00;99283.03;2622649;28;20051;-82
2022/10/19 05:30:37;;;;;;;14.10;7.45;;;;;;;12.62;100.00;99290.06;2622235;28;20053;-88
2022/10/19 05:31:53;;;;;;;14.57;8.00;;;;;;;12.56;100.00;99293.72;2622732;28;20125;-82
2022/10/19 05:33:08;;;;;;;12.48;7.10;;;;;;;12.54;100.00;99291.09;2625218;28;21101;-81
2022/10/19 05:34:24;;;;;;;12.25;6.53;;;;;;;12.68;100.00;99289.94;2625998;28;20048;-85
2022/10/19 05:35:39;;;;;;;13.38;7.30;;;;;;;12.65;100.00;99290.00;2624337;28;20052;-82
2022/10/19 05:36:55;;;;;;;14.00;7.47;;;;;;;12.39;100.00;99289.69;2624438;28;20048;-81
2022/10/19 05:38:11;;;;;;;11.63;7.20;;;;;;;12.48;100.00;99291.25;2628063;28;20044;-82
2022/10/19 05:39:26;;;;;;;15.07;7.68;;;;;;;12.12;100.00;99291.13;2623691;28;20052;-82
2022/10/19 05:40:45;;;;;;;14.50;7.45;;;;;;;12.27;100.00;99295.22;2621619;28;20097;-81
2022/10/19 05:42:01;;;;;;;38.22;8.82;;;;;;;11.93;100.00;99291.47;2625150;28;20490;-82
2022/10/19 05:43:16;;;;;;;46.78;9.20;;;;;;;11.95;100.00;99289.69;2623377;28;20060;-82
2022/10/19 05:44:32;;;;;;;18.58;8.05;;;;;;;12.13;100.00;99292.84;2626254;28;20475;-81
2022/10/19 05:45:47;;;;;;;43.40;9.52;;;;;;;11.81;100.00;99286.47;2625076;28;20036;-79
2022/10/19 05:47:06;;;;;;;30.27;9.55;;;;;;;11.93;100.00;99301.09;2615822;28;20044;-80
2022/10/19 05:48:22;;;;;;;27.08;9.25;;;;;;;11.66;100.00;99293.75;2618450;28;20052;-80
2022/10/19 05:49:38;;;;;;;30.75;9.88;;;;;;;11.78;100.00;99304.91;2622146;28;20055;-80
2022/10/19 05:50:54;;;;;;;29.85;9.13;;;;;;;11.60;100.00;99304.34;2626040;28;20048;-80
2022/10/19 05:52:10;;;;;;;29.52;9.35;;;;;;;11.87;100.00;99308.19;2622939;28;20049;-79
2022/10/19 05:53:26;;;;;;;26.83;9.88;;;;;;;11.95;100.00;99307.19;2622874;28;20066;-80
2022/10/19 05:54:41;;;;;;;23.25;10.82;;;;;;;11.82;100.00;99314.44;2624996;28;20045;-80
2022/10/19 05:55:57;;;;;;;30.25;9.65;;;;;;;12.09;100.00;99315.69;2624092;28;20240;-79
2022/10/19 05:57:12;;;;;;;39.42;9.88;;;;;;;11.97;100.00;99323.78;2623207;28;20051;-83